createdAt,value
2022-11-10T00:01:54.382Z,4.76
2022-11-10T00:04:41.945Z,4.20
2022-11-10T00:07:29.519Z,4.06
2022-11-10T00:10:17.313Z,3.81
2022-11-10T00:13:04.894Z,4.87
2022-11-10T00:15:52.453Z,4.38
2022-11-10T00:18:40.041Z,4.60
2022-11-10T00:21:27.615Z,4.81
2022-11-10T00:24:15.190Z,4.88
2022-11-10T00:27:02.738Z,4.62
2022-11-10T00:29:50.321Z,5.19
2022-11-10T00:32:37.915Z,4.77
2022-11-10T00:35:25.461Z,4.81
2022-11-10T00:38:13.059Z,5.11
2022-11-10T00:41:00.634Z,4.63
2022-11-10T00:43:48.224Z,4.14
2022-11-10T00:46:35.759Z,4.32
2022-11-10T00:49:25.329Z,4.10
2022-11-10T00:52:12.896Z,4.07
2022-11-10T00:55:00.469Z,3.65
2022-11-10T00:57:48.015Z,3.37
2022-11-10T01:00:35.590Z,3.44
2022-11-10T01:03:23.545Z,3.37
2022-11-10T01:06:11.395Z,3.37
2022-11-10T01:08:58.934Z,3.31
2022-11-10T01:11:46.502Z,3.49
2022-11-10T01:14:34.043Z,3.51
2022-11-10T01:17:21.600Z,3.44
2022-11-10T01:20:09.154Z,3.26
2022-11-10T01:22:56.709Z,3.49
2022-11-10T01:25:44.312Z,3.54
2022-11-10T01:28:31.877Z,3.47
2022-11-10T01:31:19.441Z,3.65
2022-11-10T01:34:06.999Z,3.32
2022-11-10T01:36:54.546Z,2.93
2022-11-10T01:39:42.137Z,2.55
2022-11-10T01:42:29.690Z,1.84
2022-11-10T01:45:17.262Z,2.35
2022-11-10T01:48:04.831Z,2.60
2022-11-10T01:50:52.370Z,2.55
2022-11-10T01:53:39.947Z,2.97
2022-11-10T01:56:27.481Z,2.72
2022-11-10T01:59:15.045Z,3.39
2022-11-10T02:02:02.599Z,3.39
2022-11-10T02:04:50.184Z,3.73
2022-11-10T02:07:37.727Z,3.72
2022-11-10T02:10:25.294Z,3.64
2022-11-10T02:13:12.826Z,3.69
2022-11-10T02:16:00.378Z,3.63
2022-11-10T02:18:47.934Z,3.49
2022-11-10T02:21:35.455Z,3.65
2022-11-10T02:24:23.039Z,3.61
2022-11-10T02:27:10.739Z,3.60
2022-11-10T02:29:58.312Z,3.53
2022-11-10T02:32:45.893Z,3.28
2022-11-10T02:35:33.448Z,3.07
2022-11-10T02:38:21.021Z,3.56
2022-11-10T02:41:08.591Z,3.00
2022-11-10T02:43:56.150Z,3.14
2022-11-10T02:46:43.692Z,3.00
2022-11-10T02:49:31.250Z,3.31
2022-11-10T02:52:18.797Z,3.18
2022-11-10T02:55:06.387Z,3.44
2022-11-10T02:57:53.952Z,3.32
2022-11-10T03:00:41.520Z,3.41
2022-11-10T03:03:29.091Z,3.27
2022-11-10T03:06:16.655Z,3.37
2022-11-10T03:09:04.228Z,3.33
2022-11-10T03:11:51.797Z,2.94
2022-11-10T03:14:39.363Z,2.85
2022-11-10T03:17:26.932Z,2.63
2022-11-10T03:20:14.507Z,2.80
2022-11-10T03:23:02.094Z,2.86
2022-11-10T03:25:49.647Z,2.83
2022-11-10T03:28:37.194Z,2.69
2022-11-10T03:31:24.760Z,2.66
2022-11-10T03:34:12.309Z,2.43
2022-11-10T03:36:59.861Z,2.76
2022-11-10T03:39:47.492Z,2.50
2022-11-10T03:42:35.039Z,2.74
2022-11-10T03:45:22.622Z,2.96
2022-11-10T03:48:10.166Z,3.07
2022-11-10T03:50:57.718Z,2.90
2022-11-10T03:53:45.265Z,2.69
2022-11-10T03:56:32.850Z,3.05
2022-11-10T03:59:20.395Z,2.73
2022-11-10T04:02:08.004Z,2.90
2022-11-10T04:04:55.585Z,3.24
2022-11-10T04:07:43.151Z,3.28
2022-11-10T04:10:30.696Z,2.98
2022-11-10T04:13:35.697Z,3.17
2022-11-10T04:16:23.280Z,2.94
2022-11-10T04:19:10.897Z,3.04
2022-11-10T04:21:58.455Z,3.31
2022-11-10T04:24:46.026Z,2.74
2022-11-10T04:27:33.589Z,2.92
2022-11-10T04:30:21.151Z,2.93
2022-11-10T04:33:08.716Z,2.89
2022-11-10T04:35:56.273Z,2.68
2022-11-10T04:38:43.854Z,2.66
2022-11-10T04:41:31.439Z,2.45
2022-11-10T04:44:19.007Z,2.72
2022-11-10T04:47:11.646Z,2.17
2022-11-10T04:49:59.642Z,2.19
2022-11-10T04:52:47.193Z,2.32
2022-11-10T04:55:34.782Z,2.43
2022-11-10T04:58:22.353Z,2.46
2022-11-10T05:01:09.945Z,2.52
2022-11-10T05:03:57.579Z,2.51
2022-11-10T05:06:45.129Z,2.54
2022-11-10T05:09:32.812Z,2.29
2022-11-10T05:12:22.444Z,2.03
2022-11-10T05:15:10.163Z,2.16
2022-11-10T05:17:57.732Z,2.42
2022-11-10T05:20:45.314Z,2.39
2022-11-10T05:23:32.853Z,2.39
2022-11-10T05:26:20.412Z,2.13
2022-11-10T05:29:07.972Z,1.55
2022-11-10T05:31:55.531Z,1.58
2022-11-10T05:34:43.078Z,1.53
2022-11-10T05:37:30.665Z,1.54
2022-11-10T05:40:18.221Z,1.40
2022-11-10T05:43:05.794Z,1.45
2022-11-10T05:45:53.342Z,1.95
2022-11-10T05:48:40.903Z,2.01
2022-11-10T05:51:28.469Z,2.09
2022-11-10T05:54:16.030Z,3.20
2022-11-10T05:57:03.602Z,3.49
2022-11-10T05:59:51.174Z,3.31
2022-11-10T06:02:38.732Z,3.80
2022-11-10T06:05:30.921Z,4.52
2022-11-10T06:08:18.942Z,5.50
2022-11-10T06:11:06.502Z,6.46
2022-11-10T06:13:54.061Z,5.98
2022-11-10T06:16:41.634Z,5.30
2022-11-10T06:19:29.181Z,5.09
2022-11-10T06:22:16.749Z,4.72
2022-11-10T06:25:04.311Z,4.65
2022-11-10T06:27:51.903Z,5.23
2022-11-10T06:30:41.460Z,5.12
2022-11-10T06:33:29.047Z,5.02
2022-11-10T06:36:16.594Z,5.25
2022-11-10T06:39:04.176Z,5.67
2022-11-10T06:41:51.732Z,5.39
2022-11-10T06:44:39.374Z,5.35
2022-11-10T06:47:26.929Z,5.21
2022-11-10T06:50:14.500Z,4.83
2022-11-10T06:53:02.062Z,4.71
2022-11-10T06:55:49.650Z,5.73
2022-11-10T06:58:37.218Z,20.53
2022-11-10T07:01:24.797Z,27.86
2022-11-10T07:04:21.002Z,32.23
2022-11-10T07:07:08.895Z,29.05
2022-11-10T07:09:56.503Z,29.18
2022-11-10T07:12:44.103Z,29.55
2022-11-10T07:15:31.670Z,19.15
2022-11-10T07:18:19.253Z,15.59
2022-11-10T07:21:06.792Z,15.18
2022-11-10T07:23:54.357Z,12.69
2022-11-10T07:26:41.914Z,10.08
2022-11-10T07:29:29.477Z,11.19
2022-11-10T07:32:17.041Z,13.09
2022-11-10T07:35:04.587Z,21.53
2022-11-10T07:37:52.165Z,28.42
2022-11-10T07:40:39.712Z,24.35
2022-11-10T07:43:27.389Z,25.75
2022-11-10T07:46:16.948Z,24.36
2022-11-10T07:49:04.519Z,22.56
2022-11-10T07:51:52.075Z,22.64
2022-11-10T07:54:39.682Z,22.01
2022-11-10T07:57:27.232Z,23.36
2022-11-10T08:00:14.804Z,23.70
2022-11-10T08:03:02.379Z,26.11
2022-11-10T08:05:49.920Z,35.89
2022-11-10T08:08:37.478Z,49.41
2022-11-10T08:11:25.064Z,52.46
2022-11-10T08:14:12.618Z,38.22
2022-11-10T08:17:00.202Z,27.55
2022-11-10T08:19:47.785Z,29.06
2022-11-10T08:22:35.350Z,31.32
2022-11-10T08:25:22.945Z,34.48
2022-11-10T08:28:10.510Z,38.32
2022-11-10T08:31:01.605Z,45.84
2022-11-10T08:33:52.835Z,47.22
2022-11-10T08:36:40.396Z,45.61
2022-11-10T08:39:38.515Z,42.90
2022-11-10T08:42:26.450Z,43.45
2022-11-10T08:45:14.004Z,38.36
2022-11-10T08:48:01.599Z,43.38
2022-11-10T08:50:49.177Z,44.63
2022-11-10T08:53:36.781Z,21.46
2022-11-10T08:56:24.366Z,41.18
2022-11-10T08:59:11.933Z,27.51
2022-11-10T09:01:59.658Z,11.87
2022-11-10T09:04:47.299Z,12.50
2022-11-10T09:07:34.986Z,11.60
2022-11-10T09:10:22.645Z,10.79
2022-11-10T09:13:10.245Z,10.96
2022-11-10T09:15:57.961Z,10.86
2022-11-10T09:18:45.515Z,10.08
2022-11-10T09:21:33.088Z,10.22
2022-11-10T09:24:20.656Z,9.95
2022-11-10T09:27:08.220Z,8.99
2022-11-10T09:29:55.762Z,8.94
2022-11-10T09:32:43.333Z,8.82
2022-11-10T09:35:30.918Z,8.16
2022-11-10T09:38:18.591Z,8.67
2022-11-10T09:41:06.259Z,9.08
2022-11-10T09:43:53.811Z,8.08
2022-11-10T09:46:41.448Z,8.50
2022-11-10T09:49:29.025Z,8.79
2022-11-10T09:52:16.604Z,9.11
2022-11-10T09:55:04.165Z,9.65
2022-11-10T09:57:51.758Z,9.35
2022-11-10T10:00:39.314Z,9.44
2022-11-10T10:03:26.874Z,8.96
2022-11-10T10:06:14.422Z,8.83
2022-11-10T10:09:02.006Z,8.65
2022-11-10T10:11:49.550Z,9.20
2022-11-10T10:14:37.133Z,8.20
2022-11-10T10:17:26.932Z,7.93
2022-11-10T10:20:14.662Z,7.44
2022-11-10T10:23:02.205Z,7.03
2022-11-10T10:25:49.802Z,7.10
2022-11-10T10:28:37.386Z,6.90
2022-11-10T10:31:24.956Z,6.96
2022-11-10T10:34:12.499Z,6.66
2022-11-10T10:37:00.087Z,6.86
2022-11-10T10:39:47.638Z,6.70
2022-11-10T10:42:35.978Z,6.16
2022-11-10T10:45:23.588Z,6.10
2022-11-10T10:48:11.157Z,7.15
2022-11-10T10:50:58.861Z,6.85
2022-11-10T10:53:46.420Z,7.65
2022-11-10T10:56:34.073Z,7.69
2022-11-10T10:59:21.636Z,8.03
2022-11-10T11:02:09.209Z,8.16
2022-11-10T11:04:56.816Z,8.12
2022-11-10T11:07:44.448Z,8.18
2022-11-10T11:10:32.069Z,7.67
2022-11-10T11:13:19.637Z,7.93
2022-11-10T11:16:07.218Z,7.09
2022-11-10T11:18:54.816Z,7.92
2022-11-10T11:21:42.369Z,7.88
2022-11-10T11:24:29.923Z,7.46
2022-11-10T11:27:17.483Z,8.62
2022-11-10T11:30:05.065Z,9.12
2022-11-10T11:32:52.612Z,9.46
2022-11-10T11:35:40.183Z,7.85
2022-11-10T11:38:27.753Z,8.15
2022-11-10T11:41:15.324Z,9.35
2022-11-10T11:44:02.861Z,9.05
2022-11-10T11:46:50.463Z,9.48
2022-11-10T11:49:38.043Z,11.21
2022-11-10T11:52:25.613Z,10.37
2022-11-10T11:55:13.192Z,10.61
2022-11-10T11:58:00.753Z,9.84
2022-11-10T12:00:48.334Z,10.40
2022-11-10T12:03:35.941Z,11.12
2022-11-10T12:06:23.510Z,11.49
2022-11-10T12:09:11.109Z,11.06
2022-11-10T12:11:58.714Z,10.01
2022-11-10T12:14:46.267Z,9.22
2022-11-10T12:17:33.844Z,8.61
2022-11-10T12:20:21.419Z,8.37
2022-11-10T12:23:08.980Z,9.12
2022-11-10T12:25:56.564Z,9.30
2022-11-10T12:28:44.118Z,9.34
2022-11-10T12:31:31.674Z,9.08
2022-11-10T12:34:19.237Z,8.85
2022-11-10T12:37:06.825Z,9.08
2022-11-10T12:39:54.401Z,8.78
2022-11-10T12:42:41.988Z,8.40
2022-11-10T12:45:29.566Z,8.19
2022-11-10T12:48:17.134Z,7.61
2022-11-10T12:51:04.678Z,6.31
2022-11-10T12:53:52.241Z,6.16
2022-11-10T12:56:39.786Z,7.25
2022-11-10T12:59:27.388Z,7.23
2022-11-10T13:02:14.956Z,7.18
2022-11-10T13:05:02.621Z,7.47
2022-11-10T13:07:50.252Z,7.08
2022-11-10T13:10:37.934Z,7.30
2022-11-10T13:13:25.513Z,7.08
2022-11-10T13:16:13.117Z,7.04
2022-11-10T13:19:00.666Z,7.17
2022-11-10T13:21:48.234Z,7.46
2022-11-10T13:24:35.922Z,7.79
2022-11-10T13:27:23.555Z,7.49
2022-11-10T13:30:11.296Z,8.06
2022-11-10T13:32:58.874Z,7.13
2022-11-10T13:35:49.962Z,6.62
2022-11-10T13:38:39.967Z,6.50
2022-11-10T13:41:27.515Z,6.00
2022-11-10T13:44:15.072Z,5.00
2022-11-10T13:47:02.636Z,4.61
2022-11-10T13:49:50.196Z,4.27
2022-11-10T13:52:37.767Z,4.80
2022-11-10T13:55:25.343Z,4.51
2022-11-10T13:58:12.927Z,4.47
2022-11-10T14:01:00.487Z,4.31
2022-11-10T14:03:48.270Z,4.50
2022-11-10T14:06:36.026Z,4.44
2022-11-10T14:09:23.711Z,4.29
2022-11-10T14:12:11.281Z,4.67
2022-11-10T14:14:58.854Z,4.37
2022-11-10T14:17:46.411Z,4.36
2022-11-10T14:20:33.990Z,4.33
2022-11-10T14:23:21.561Z,4.26
2022-11-10T14:26:10.256Z,4.53
2022-11-10T14:28:57.847Z,4.20
2022-11-10T14:31:45.453Z,4.08
2022-11-10T14:34:33.014Z,4.45
2022-11-10T14:37:20.570Z,4.18
2022-11-10T14:40:08.161Z,4.02
2022-11-10T14:42:55.738Z,4.19
2022-11-10T14:45:43.298Z,4.31
2022-11-10T14:48:30.887Z,4.52
2022-11-10T14:51:18.505Z,4.58
2022-11-10T14:54:06.054Z,4.39
2022-11-10T14:56:53.651Z,4.75
2022-11-10T14:59:41.199Z,4.61
2022-11-10T15:02:28.831Z,4.73
2022-11-10T15:05:16.467Z,4.75
2022-11-10T15:08:04.056Z,4.65
2022-11-10T15:10:51.599Z,4.85
2022-11-10T15:13:39.169Z,4.24
2022-11-10T15:16:26.804Z,4.21
2022-11-10T15:19:14.390Z,4.00
2022-11-10T15:22:01.934Z,3.87
2022-11-10T15:24:49.529Z,4.26
2022-11-10T15:27:37.093Z,4.10
2022-11-10T15:30:24.754Z,4.04
2022-11-10T15:33:12.307Z,4.15
2022-11-10T15:35:59.892Z,4.17
2022-11-10T15:38:47.454Z,4.18
2022-11-10T15:41:35.041Z,4.30
2022-11-10T15:44:22.605Z,3.91
2022-11-10T15:47:10.183Z,3.65
2022-11-10T15:49:57.747Z,3.86
2022-11-10T15:52:45.319Z,3.98
2022-11-10T15:55:32.865Z,3.84
2022-11-10T15:58:20.821Z,4.02
2022-11-10T16:01:08.830Z,3.93
2022-11-10T16:03:56.513Z,4.18
2022-11-10T16:06:44.164Z,4.37
2022-11-10T16:09:31.718Z,3.84
2022-11-10T16:12:19.281Z,3.82
2022-11-10T16:15:06.840Z,4.09
2022-11-10T16:17:54.415Z,4.05
2022-11-10T16:20:41.943Z,3.50
2022-11-10T16:23:29.495Z,3.29
2022-11-10T16:26:17.033Z,3.33
2022-11-10T16:29:04.624Z,2.98
2022-11-10T16:31:52.226Z,3.10
2022-11-10T16:34:39.770Z,2.71
2022-11-10T16:37:30.655Z,2.93
2022-11-10T16:40:19.354Z,2.85
2022-11-10T16:43:06.932Z,2.73
2022-11-10T16:45:54.479Z,2.97
2022-11-10T16:48:42.046Z,2.85
2022-11-10T16:51:29.612Z,2.82
2022-11-10T16:54:19.477Z,2.88
2022-11-10T16:57:07.040Z,3.07
2022-11-10T16:59:54.598Z,3.10
2022-11-10T17:02:42.602Z,3.14
2022-11-10T17:05:31.916Z,3.26
2022-11-10T17:08:19.664Z,3.07
2022-11-10T17:11:07.345Z,3.54
2022-11-10T17:13:54.918Z,3.58
2022-11-10T17:16:42.487Z,3.64
2022-11-10T17:19:30.050Z,3.61
2022-11-10T17:22:17.823Z,3.53
2022-11-10T17:25:05.452Z,3.40
2022-11-10T17:27:53.013Z,3.71
2022-11-10T17:30:40.581Z,3.99
2022-11-10T17:33:28.197Z,4.39
2022-11-10T17:36:15.741Z,4.30
2022-11-10T17:39:03.306Z,4.37
2022-11-10T17:41:50.881Z,4.52
2022-11-10T17:44:38.467Z,4.51
2022-11-10T17:47:26.031Z,5.03
2022-11-10T17:50:13.601Z,5.01
2022-11-10T17:53:01.158Z,5.12
2022-11-10T17:55:48.761Z,5.67
2022-11-10T17:58:36.332Z,5.92
2022-11-10T18:01:23.967Z,6.09
2022-11-10T18:04:11.559Z,5.79
2022-11-10T18:06:59.156Z,5.80
2022-11-10T18:09:46.736Z,5.72
2022-11-10T18:12:34.368Z,5.43
2022-11-10T18:15:21.907Z,5.40
2022-11-10T18:18:09.482Z,5.16
2022-11-10T18:20:57.031Z,5.98
2022-11-10T18:23:44.600Z,5.88
2022-11-10T18:26:32.174Z,5.72
2022-11-10T18:29:21.778Z,5.86
2022-11-10T18:32:09.332Z,5.50
2022-11-10T18:34:56.904Z,6.30
2022-11-10T18:37:44.486Z,6.74
2022-11-10T18:40:32.135Z,6.84
2022-11-10T18:43:19.772Z,6.65
2022-11-10T18:46:07.441Z,7.21
2022-11-10T18:48:55.019Z,7.03
2022-11-10T18:51:42.561Z,6.93
2022-11-10T18:54:30.126Z,7.50
2022-11-10T18:57:17.854Z,7.52
2022-11-10T19:00:05.393Z,7.34
2022-11-10T19:02:52.955Z,7.67
2022-11-10T19:05:40.515Z,8.16
2022-11-10T19:08:28.066Z,8.12
2022-11-10T19:11:15.653Z,8.07
2022-11-10T19:14:03.238Z,9.14
2022-11-10T19:16:50.798Z,9.23
2022-11-10T19:19:38.371Z,8.70
2022-11-10T19:22:25.923Z,9.03
2022-11-10T19:25:13.498Z,9.60
2022-11-10T19:28:01.040Z,9.49
2022-11-10T19:30:48.621Z,9.13
2022-11-10T19:33:36.209Z,9.69
2022-11-10T19:36:23.790Z,9.43
2022-11-10T19:39:11.425Z,9.74
2022-11-10T19:41:59.012Z,10.50
2022-11-10T19:44:46.565Z,10.17
2022-11-10T19:47:34.149Z,10.74
2022-11-10T19:50:21.699Z,10.69
2022-11-10T19:53:09.278Z,10.88
2022-11-10T19:55:56.849Z,11.57
2022-11-10T19:58:44.478Z,12.51
2022-11-10T20:01:34.108Z,13.77
2022-11-10T20:04:21.723Z,13.69
2022-11-10T20:07:09.346Z,13.93
2022-11-10T20:09:56.991Z,14.29
2022-11-10T20:12:44.594Z,13.46
2022-11-10T20:15:32.198Z,14.08
2022-11-10T20:18:19.778Z,14.66
2022-11-10T20:21:07.349Z,14.71
2022-11-10T20:23:54.949Z,16.23
2022-11-10T20:26:42.524Z,22.91
2022-11-10T20:29:30.115Z,23.57
2022-11-10T20:32:17.674Z,32.75
2022-11-10T20:35:05.277Z,39.14
2022-11-10T20:37:52.857Z,49.61
2022-11-10T20:40:45.057Z,47.29
2022-11-10T20:43:32.919Z,52.87
2022-11-10T20:46:53.926Z,50.27
2022-11-10T20:49:28.016Z,45.85
2022-11-10T20:52:15.601Z,32.95
2022-11-10T20:55:03.211Z,28.84
2022-11-10T20:57:50.790Z,23.82
2022-11-10T21:00:38.397Z,22.93
2022-11-10T21:03:26.277Z,23.78
2022-11-10T21:06:14.150Z,26.25
2022-11-10T21:09:01.732Z,34.64
2022-11-10T21:11:49.328Z,43.27
2022-11-10T21:14:36.882Z,50.41
2022-11-10T21:17:24.477Z,59.57
2022-11-10T21:20:12.068Z,71.72
2022-11-10T21:23:03.374Z,73.71
2022-11-10T21:25:51.368Z,74.31
2022-11-10T21:28:38.975Z,69.45
2022-11-10T21:31:26.553Z,73.93
2022-11-10T21:34:14.172Z,55.19
2022-11-10T21:37:01.753Z,56.18
2022-11-10T21:39:49.323Z,52.46
2022-11-10T21:42:36.916Z,48.88
2022-11-10T21:45:24.613Z,48.29
2022-11-10T21:48:14.178Z,47.50
2022-11-10T21:51:01.770Z,38.18
2022-11-10T21:53:49.323Z,29.73
2022-11-10T21:56:36.906Z,26.60
2022-11-10T21:59:24.467Z,27.83
2022-11-10T22:02:12.060Z,28.37
2022-11-10T22:04:59.639Z,27.98
2022-11-10T22:07:47.210Z,33.53
2022-11-10T22:10:34.809Z,53.83
2022-11-10T22:13:22.563Z,53.60
2022-11-10T22:16:10.364Z,46.61
2022-11-10T22:18:57.954Z,56.72
2022-11-10T22:21:45.527Z,54.70
2022-11-10T22:24:33.100Z,47.26
2022-11-10T22:27:20.659Z,40.52
2022-11-10T22:30:08.225Z,37.64
2022-11-10T22:32:55.812Z,29.35
2022-11-10T22:35:43.386Z,20.99
2022-11-10T22:38:30.969Z,15.72
2022-11-10T22:41:18.543Z,14.09
2022-11-10T22:44:06.111Z,10.66
2022-11-10T22:46:53.669Z,10.78
2022-11-10T22:49:41.281Z,9.13
2022-11-10T22:52:28.831Z,8.73
2022-11-10T22:55:16.410Z,8.41
2022-11-10T22:58:03.959Z,8.39
2022-11-10T23:00:51.545Z,8.10
2022-11-10T23:03:39.101Z,8.10
2022-11-10T23:06:26.668Z,8.99
2022-11-10T23:09:14.249Z,9.10
2022-11-10T23:12:01.822Z,8.32
2022-11-10T23:14:49.371Z,7.32
2022-11-10T23:17:36.924Z,8.31
2022-11-10T23:20:24.466Z,8.22
2022-11-10T23:23:12.032Z,7.89
2022-11-10T23:25:59.585Z,9.04
2022-11-10T23:28:47.258Z,8.87
2022-11-10T23:31:36.796Z,8.86
2022-11-10T23:34:24.363Z,10.87
2022-11-10T23:37:11.920Z,8.46
2022-11-10T23:39:59.544Z,8.72
2022-11-10T23:42:47.112Z,8.09
2022-11-10T23:46:00.431Z,8.49
2022-11-10T23:48:42.215Z,10.59
2022-11-10T23:51:29.873Z,10.01
2022-11-10T23:54:17.433Z,10.93
2022-11-10T23:57:05.106Z,10.12
2022-11-10T23:59:54.641Z,8.99
